»·PEaware :: RPA5809 KSNA-KSFO

RPA5809 :: KSNA-KSFO

FLIGHT INFORMATION

Flight Status: Arrived
Operator: Republic Airlines
More flights by this operator :: More flights under this callsign
Pilot: Alex S. (7186)
Aircraft: EMBRAER EMB-170/175
(E170)
More flights by this aircraft type
Origin: KSNA John Wayne-Orange Co
United States
Destination: KSFO San Francisco Intl
United States
More flights between these airports :: More routes between these airports
Route: HHERO2 IKAYE RIZIN SPLNT STOKD SERFR SERFR2
File this flight plan on PilotEdge
Remarks: PBN / B2B3B4B5C1D1S2 DOF / 180110 REG / N170SB EET / KZOA0041 OPR / UAL PER / C RMK / TCAS SIMBRIEF
Altitude:
(Current/Filed)
30,000ft
Speed:
(Current/Filed)
398kts
Departed: 10-Jan-18 10:48 AM
Arrived: 10-Jan-18 11:58 AM
Distance/Time
Traveled:
323nm/1:10
Distance/Time
To Go:
Arrived

Flight Plot

Page will automatically refresh every two minutes.

Flight plan parsing failed; only flown route is shown


Map Options




Map Legend


Flown Route
Filed Route
Departure Airport
Arrival Airport
Navaid (VOR, NDB)
Fix

Horizontal Profiles

Position Reports

Time Latitude Longitude Heading Altitude Ground
Speed
10-Jan-18 10:32 33.681831 -117.860680 117 51ft 0kts
10-Jan-18 10:33 33.681831 -117.860680 117 51ft 0kts
10-Jan-18 10:34 33.681831 -117.860680 117 51ft 0kts
10-Jan-18 10:35 33.681831 -117.860680 117 51ft 0kts
10-Jan-18 10:36 33.681831 -117.860680 117 51ft 0kts
10-Jan-18 10:37 33.681831 -117.860680 117 51ft 0kts
10-Jan-18 10:38 33.681831 -117.860680 117 51ft 0kts
10-Jan-18 10:39 33.681831 -117.860680 117 51ft 0kts
10-Jan-18 10:40 33.681831 -117.860680 117 51ft 0kts
10-Jan-18 10:41 33.681831 -117.860680 117 51ft 0kts
10-Jan-18 10:42 33.681831 -117.860680 117 51ft 0kts
10-Jan-18 10:43 33.681831 -117.860680 117 51ft 0kts
10-Jan-18 10:44 33.681831 -117.860680 117 51ft 0kts
10-Jan-18 10:45 33.681831 -117.860680 117 51ft 0kts
10-Jan-18 10:46 33.681924 -117.860896 116 51ft 2kts
10-Jan-18 10:47 33.682337 -117.861285 203 51ft 1kts
10-Jan-18 10:48 33.682329 -117.861289 203 51ft 1kts
10-Jan-18 10:49 33.680730 -117.862303 210 51ft 8kts
10-Jan-18 10:50 33.681160 -117.864207 297 51ft 0kts
10-Jan-18 10:51 33.681160 -117.864207 297 51ft 0kts
10-Jan-18 10:52 33.681160 -117.864207 297 51ft 0kts
10-Jan-18 10:53 33.681144 -117.865387 209 51ft 10kts
10-Jan-18 10:54 33.650864 -117.886940 207 1622ft 172kts
10-Jan-18 10:55 33.602088 -117.897185 184 4102ft 196kts
10-Jan-18 10:56 33.548385 -117.928703 222 6000ft 252kts
10-Jan-18 10:57 33.494472 -117.986514 227 7883ft 266kts
10-Jan-18 10:58 33.451975 -118.060071 244 9735ft 273kts
10-Jan-18 10:59 33.418197 -118.142771 267 11602ft 309kts
10-Jan-18 11:00 33.423827 -118.225059 287 13863ft 305kts
10-Jan-18 11:01 33.444527 -118.310854 297 15992ft 309kts
10-Jan-18 11:02 33.483881 -118.402728 302 18665ft 316kts
10-Jan-18 11:03 33.529520 -118.493163 317 20994ft 319kts
10-Jan-18 11:04 33.601059 -118.556112 327 23024ft 325kts
10-Jan-18 11:05 33.676308 -118.617129 325 24789ft 331kts
10-Jan-18 11:06 33.750683 -118.679548 325 26311ft 336kts
10-Jan-18 11:07 33.827659 -118.744371 325 27685ft 342kts
10-Jan-18 11:08 33.905935 -118.810277 325 28888ft 347kts
10-Jan-18 11:09 33.985723 -118.877538 325 29865ft 355kts
10-Jan-18 11:10 34.065207 -118.944668 325 30118ft 354kts
10-Jan-18 11:11 34.137140 -119.006518 318 30125ft 358kts
10-Jan-18 11:12 34.195159 -119.103457 305 30124ft 366kts
10-Jan-18 11:13 34.217984 -119.150343 305 30120ft 367kts
10-Jan-18 11:14 34.270193 -119.255544 305 30113ft 366kts
10-Jan-18 11:15 34.325890 -119.364596 306 30111ft 389kts
10-Jan-18 11:16 34.382441 -119.475731 305 30107ft 389kts
10-Jan-18 11:17 34.446529 -119.579764 316 30112ft 390kts
10-Jan-18 11:18 34.523686 -119.672217 317 30111ft 396kts
10-Jan-18 11:19 34.598103 -119.762568 316 30106ft 361kts
10-Jan-18 11:20 34.668253 -119.849206 316 30131ft 361kts
10-Jan-18 11:21 34.738393 -119.936276 316 30157ft 361kts
10-Jan-18 11:22 34.808313 -120.023522 316 30178ft 361kts
10-Jan-18 11:23 34.812304 -120.028517 316 30178ft 361kts
10-Jan-18 11:39 36.037885 -121.336354 322 30252ft 352kts
10-Jan-18 11:40 36.117769 -121.404701 326 30266ft 352kts
10-Jan-18 11:41 36.198686 -121.466485 327 29514ft 358kts
10-Jan-18 11:42 36.282117 -121.531248 326 28335ft 362kts
10-Jan-18 11:43 36.363713 -121.595327 326 27155ft 351kts
10-Jan-18 11:44 36.441858 -121.656904 326 25931ft 337kts
10-Jan-18 11:45 36.518402 -121.717449 326 24447ft 331kts
10-Jan-18 11:46 36.593841 -121.777084 326 22282ft 323kts
10-Jan-18 11:47 36.667901 -121.835818 326 20130ft 315kts
10-Jan-18 11:48 36.741601 -121.891493 335 18023ft 310kts
10-Jan-18 11:49 36.824096 -121.918432 344 15913ft 306kts
10-Jan-18 11:50 36.905686 -121.940170 344 13801ft 299kts
10-Jan-18 11:51 36.984658 -121.964052 340 12032ft 294kts
10-Jan-18 11:52 37.060651 -121.995026 340 10627ft 287kts
10-Jan-18 11:53 37.128803 -122.022138 343 9258ft 259kts
10-Jan-18 11:54 37.191132 -122.046451 344 8089ft 260kts
10-Jan-18 11:55 37.254788 -122.071424 346 6901ft 264kts
10-Jan-18 11:56 37.320253 -122.097230 339 6028ft 270kts
10-Jan-18 11:57 37.382610 -122.121708 340 5219ft 269kts
10-Jan-18 11:58 37.452296 -122.149048 343 4061ft 260kts
10-Jan-18 11:59 37.519216 -122.169622 346 3272ft 249kts
10-Jan-18 12:00 37.558872 -122.228036 292 2270ft 217kts
10-Jan-18 12:01 37.582092 -122.287358 295 1270ft 169kts
10-Jan-18 12:02 37.600901 -122.332558 295 490ft 132kts
10-Jan-18 12:03 37.616739 -122.370426 298 18ft 76kts
10-Jan-18 12:04 37.618923 -122.378757 266 18ft 8kts
10-Jan-18 12:05 37.619803 -122.382341 297 18ft 11kts
10-Jan-18 12:06 37.621643 -122.386726 298 18ft 8kts
10-Jan-18 12:07 37.621050 -122.387640 176 18ft 5kts
10-Jan-18 12:08 37.620681 -122.387785 200 18ft 0kts
10-Jan-18 12:09 37.620681 -122.387785 200 18ft 0kts

Navigation Log

Ident Type
Flight plan parsing failed, navigation log unavailable